sensor_id;sensor_type;location;lat;lon;timestamp;P1;durP1;ratioP1;P2;durP2;ratioP2
6109;SDS011;3085;49.444;11.054;2023-02-23T00:00:30;17.83;;;8.50;;
6109;SDS011;3085;49.444;11.054;2023-02-23T00:02:58;15.80;;;7.90;;
6109;SDS011;3085;49.444;11.054;2023-02-23T00:05:26;13.30;;;7.00;;
6109;SDS011;3085;49.444;11.054;2023-02-23T00:07:54;20.93;;;8.43;;
6109;SDS011;3085;49.444;11.054;2023-02-23T00:10:21;12.07;;;6.80;;
6109;SDS011;3085;49.444;11.054;2023-02-23T00:12:55;21.13;;;7.30;;
6109;SDS011;3085;49.444;11.054;2023-02-23T00:15:23;19.10;;;10.40;;
6109;SDS011;3085;49.444;11.054;2023-02-23T00:17:51;15.80;;;7.40;;
6109;SDS011;3085;49.444;11.054;2023-02-23T00:20:18;14.80;;;7.57;;
6109;SDS011;3085;49.444;11.054;2023-02-23T00:22:49;14.93;;;7.20;;
6109;SDS011;3085;49.444;11.054;2023-02-23T00:25:18;17.60;;;9.00;;
6109;SDS011;3085;49.444;11.054;2023-02-23T00:27:45;15.47;;;7.10;;
6109;SDS011;3085;49.444;11.054;2023-02-23T00:30:14;18.63;;;7.37;;
6109;SDS011;3085;49.444;11.054;2023-02-23T00:32:42;13.77;;;7.53;;
6109;SDS011;3085;49.444;11.054;2023-02-23T00:35:09;14.10;;;7.60;;
6109;SDS011;3085;49.444;11.054;2023-02-23T00:37:41;11.97;;;6.33;;
6109;SDS011;3085;49.444;11.054;2023-02-23T00:40:10;10.40;;;5.70;;
6109;SDS011;3085;49.444;11.054;2023-02-23T00:42:38;17.93;;;7.10;;
6109;SDS011;3085;49.444;11.054;2023-02-23T00:45:06;12.63;;;6.73;;
6109;SDS011;3085;49.444;11.054;2023-02-23T00:47:38;13.47;;;7.10;;
6109;SDS011;3085;49.444;11.054;2023-02-23T00:50:08;17.00;;;6.80;;
6109;SDS011;3085;49.444;11.054;2023-02-23T00:52:39;12.53;;;6.60;;
6109;SDS011;3085;49.444;11.054;2023-02-23T00:55:07;12.23;;;6.80;;
6109;SDS011;3085;49.444;11.054;2023-02-23T00:57:35;11.60;;;6.33;;
6109;SDS011;3085;49.444;11.054;2023-02-23T01:00:02;10.63;;;5.73;;
6109;SDS011;3085;49.444;11.054;2023-02-23T01:02:39;15.77;;;6.90;;
6109;SDS011;3085;49.444;11.054;2023-02-23T01:05:07;15.47;;;7.00;;
6109;SDS011;3085;49.444;11.054;2023-02-23T01:07:35;9.57;;;5.80;;
6109;SDS011;3085;49.444;11.054;2023-02-23T01:10:02;17.10;;;6.70;;
6109;SDS011;3085;49.444;11.054;2023-02-23T01:12:43;13.20;;;6.00;;
6109;SDS011;3085;49.444;11.054;2023-02-23T01:15:11;11.23;;;6.33;;
6109;SDS011;3085;49.444;11.054;2023-02-23T01:17:37;10.20;;;5.87;;
6109;SDS011;3085;49.444;11.054;2023-02-23T01:20:07;15.27;;;6.27;;
6109;SDS011;3085;49.444;11.054;2023-02-23T01:22:39;10.83;;;5.93;;
6109;SDS011;3085;49.444;11.054;2023-02-23T01:25:07;11.40;;;5.37;;
6109;SDS011;3085;49.444;11.054;2023-02-23T01:27:34;13.60;;;5.60;;
6109;SDS011;3085;49.444;11.054;2023-02-23T01:30:01;13.03;;;6.60;;
6109;SDS011;3085;49.444;11.054;2023-02-23T01:32:28;18.70;;;5.87;;
6109;SDS011;3085;49.444;11.054;2023-02-23T01:34:56;17.50;;;6.43;;
6109;SDS011;3085;49.444;11.054;2023-02-23T01:37:23;12.50;;;6.90;;
6109;SDS011;3085;49.444;11.054;2023-02-23T01:39:50;10.27;;;6.43;;
6109;SDS011;3085;49.444;11.054;2023-02-23T01:42:16;14.13;;;7.07;;
6109;SDS011;3085;49.444;11.054;2023-02-23T01:47:47;12.27;;;6.23;;
6109;SDS011;3085;49.444;11.054;2023-02-23T01:50:16;16.47;;;7.10;;
6109;SDS011;3085;49.444;11.054;2023-02-23T01:52:44;15.70;;;7.57;;
6109;SDS011;3085;49.444;11.054;2023-02-23T01:55:12;11.13;;;6.50;;
6109;SDS011;3085;49.444;11.054;2023-02-23T01:57:47;15.40;;;7.60;;
6109;SDS011;3085;49.444;11.054;2023-02-23T02:00:17;18.50;;;8.43;;
6109;SDS011;3085;49.444;11.054;2023-02-23T02:02:49;16.70;;;7.90;;
6109;SDS011;3085;49.444;11.054;2023-02-23T02:05:18;13.33;;;7.03;;
6109;SDS011;3085;49.444;11.054;2023-02-23T02:07:46;21.10;;;7.43;;
6109;SDS011;3085;49.444;11.054;2023-02-23T02:10:22;10.47;;;6.27;;
6109;SDS011;3085;49.444;11.054;2023-02-23T02:13:11;21.10;;;6.57;;
6109;SDS011;3085;49.444;11.054;2023-02-23T02:15:48;24.80;;;8.20;;
6109;SDS011;3085;49.444;11.054;2023-02-23T02:18:42;13.30;;;6.80;;
6109;SDS011;3085;49.444;11.054;2023-02-23T02:21:35;13.07;;;6.70;;
6109;SDS011;3085;49.444;11.054;2023-02-23T02:24:27;20.97;;;7.67;;
6109;SDS011;3085;49.444;11.054;2023-02-23T02:30:57;12.53;;;7.10;;
6109;SDS011;3085;49.444;11.054;2023-02-23T02:39:50;15.33;;;7.37;;
6109;SDS011;3085;49.444;11.054;2023-02-23T02:42:41;14.37;;;6.57;;
6109;SDS011;3085;49.444;11.054;2023-02-23T02:45:21;12.93;;;6.70;;
6109;SDS011;3085;49.444;11.054;2023-02-23T02:47:55;9.90;;;5.90;;
6109;SDS011;3085;49.444;11.054;2023-02-23T02:50:32;22.40;;;6.70;;
6109;SDS011;3085;49.444;11.054;2023-02-23T02:53:06;13.93;;;6.33;;
6109;SDS011;3085;49.444;11.054;2023-02-23T02:55:37;12.60;;;7.10;;
6109;SDS011;3085;49.444;11.054;2023-02-23T02:58:07;15.20;;;7.00;;
6109;SDS011;3085;49.444;11.054;2023-02-23T03:00:37;12.27;;;7.13;;
6109;SDS011;3085;49.444;11.054;2023-02-23T03:03:27;19.90;;;7.80;;
6109;SDS011;3085;49.444;11.054;2023-02-23T03:06:13;12.60;;;6.90;;
6109;SDS011;3085;49.444;11.054;2023-02-23T03:09:00;14.67;;;7.10;;
6109;SDS011;3085;49.444;11.054;2023-02-23T03:11:51;15.53;;;7.30;;
6109;SDS011;3085;49.444;11.054;2023-02-23T03:14:48;13.87;;;7.60;;
6109;SDS011;3085;49.444;11.054;2023-02-23T03:17:42;23.83;;;9.60;;
6109;SDS011;3085;49.444;11.054;2023-02-23T03:20:29;17.33;;;8.07;;
6109;SDS011;3085;49.444;11.054;2023-02-23T03:23:23;22.77;;;8.87;;
6109;SDS011;3085;49.444;11.054;2023-02-23T03:26:12;19.93;;;9.93;;
6109;SDS011;3085;49.444;11.054;2023-02-23T03:29:03;21.03;;;8.20;;
6109;SDS011;3085;49.444;11.054;2023-02-23T03:31:52;18.53;;;9.10;;
6109;SDS011;3085;49.444;11.054;2023-02-23T03:34:46;15.10;;;8.10;;
6109;SDS011;3085;49.444;11.054;2023-02-23T03:37:38;17.43;;;9.03;;
6109;SDS011;3085;49.444;11.054;2023-02-23T03:40:25;16.30;;;8.67;;
6109;SDS011;3085;49.444;11.054;2023-02-23T03:43:15;15.77;;;7.90;;
6109;SDS011;3085;49.444;11.054;2023-02-23T03:46:04;14.67;;;9.07;;
6109;SDS011;3085;49.444;11.054;2023-02-23T03:48:52;24.60;;;11.40;;
6109;SDS011;3085;49.444;11.054;2023-02-23T03:51:39;21.80;;;8.50;;
6109;SDS011;3085;49.444;11.054;2023-02-23T03:54:29;21.73;;;8.70;;
6109;SDS011;3085;49.444;11.054;2023-02-23T03:57:16;17.40;;;7.67;;
6109;SDS011;3085;49.444;11.054;2023-02-23T04:00:05;17.53;;;7.67;;
6109;SDS011;3085;49.444;11.054;2023-02-23T04:02:54;15.37;;;7.93;;
6109;SDS011;3085;49.444;11.054;2023-02-23T04:05:41;20.73;;;8.27;;
6109;SDS011;3085;49.444;11.054;2023-02-23T04:08:28;17.47;;;8.63;;
6109;SDS011;3085;49.444;11.054;2023-02-23T04:11:18;16.17;;;8.27;;
6109;SDS011;3085;49.444;11.054;2023-02-23T04:14:07;18.73;;;8.77;;
6109;SDS011;3085;49.444;11.054;2023-02-23T04:16:41;16.40;;;8.93;;
6109;SDS011;3085;49.444;11.054;2023-02-23T04:19:08;16.37;;;8.20;;
6109;SDS011;3085;49.444;11.054;2023-02-23T04:21:35;18.83;;;9.13;;
6109;SDS011;3085;49.444;11.054;2023-02-23T04:24:02;48.27;;;11.10;;
6109;SDS011;3085;49.444;11.054;2023-02-23T04:26:29;20.23;;;8.90;;
6109;SDS011;3085;49.444;11.054;2023-02-23T04:28:56;22.33;;;9.33;;
6109;SDS011;3085;49.444;11.054;2023-02-23T04:31:23;22.80;;;8.97;;
6109;SDS011;3085;49.444;11.054;2023-02-23T04:33:50;17.43;;;8.93;;
6109;SDS011;3085;49.444;11.054;2023-02-23T04:36:18;23.17;;;8.70;;
6109;SDS011;3085;49.444;11.054;2023-02-23T04:38:45;23.30;;;9.63;;
6109;SDS011;3085;49.444;11.054;2023-02-23T04:41:12;16.43;;;7.90;;
6109;SDS011;3085;49.444;11.054;2023-02-23T04:43:39;18.53;;;9.27;;
6109;SDS011;3085;49.444;11.054;2023-02-23T04:46:05;23.53;;;9.50;;
6109;SDS011;3085;49.444;11.054;2023-02-23T04:48:33;22.00;;;9.83;;
6109;SDS011;3085;49.444;11.054;2023-02-23T04:51:00;21.83;;;8.90;;
6109;SDS011;3085;49.444;11.054;2023-02-23T04:53:28;19.07;;;8.30;;
6109;SDS011;3085;49.444;11.054;2023-02-23T04:55:54;20.57;;;9.77;;
6109;SDS011;3085;49.444;11.054;2023-02-23T04:58:21;29.70;;;9.67;;
6109;SDS011;3085;49.444;11.054;2023-02-23T05:00:48;21.57;;;9.67;;
6109;SDS011;3085;49.444;11.054;2023-02-23T05:03:15;24.60;;;8.47;;
6109;SDS011;3085;49.444;11.054;2023-02-23T05:05:42;22.03;;;9.27;;
6109;SDS011;3085;49.444;11.054;2023-02-23T05:08:09;20.20;;;8.70;;
6109;SDS011;3085;49.444;11.054;2023-02-23T05:10:37;22.23;;;8.80;;
6109;SDS011;3085;49.444;11.054;2023-02-23T05:13:04;25.57;;;11.00;;
6109;SDS011;3085;49.444;11.054;2023-02-23T05:15:30;19.40;;;8.27;;
6109;SDS011;3085;49.444;11.054;2023-02-23T05:17:57;22.30;;;9.77;;
6109;SDS011;3085;49.444;11.054;2023-02-23T05:20:24;23.00;;;10.90;;
6109;SDS011;3085;49.444;11.054;2023-02-23T05:22:51;21.53;;;9.13;;
6109;SDS011;3085;49.444;11.054;2023-02-23T05:25:17;31.20;;;10.00;;
6109;SDS011;3085;49.444;11.054;2023-02-23T05:27:46;21.67;;;9.80;;
6109;SDS011;3085;49.444;11.054;2023-02-23T05:30:12;31.47;;;11.30;;
6109;SDS011;3085;49.444;11.054;2023-02-23T05:32:39;24.87;;;9.60;;
6109;SDS011;3085;49.444;11.054;2023-02-23T05:35:06;17.63;;;8.20;;
6109;SDS011;3085;49.444;11.054;2023-02-23T05:37:34;21.37;;;9.80;;
6109;SDS011;3085;49.444;11.054;2023-02-23T05:40:01;19.87;;;9.47;;
6109;SDS011;3085;49.444;11.054;2023-02-23T05:42:27;35.53;;;11.87;;
6109;SDS011;3085;49.444;11.054;2023-02-23T05:44:56;34.97;;;12.30;;
6109;SDS011;3085;49.444;11.054;2023-02-23T05:47:22;35.00;;;13.07;;
6109;SDS011;3085;49.444;11.054;2023-02-23T05:49:49;25.50;;;12.47;;
6109;SDS011;3085;49.444;11.054;2023-02-23T05:52:16;22.23;;;12.87;;
6109;SDS011;3085;49.444;11.054;2023-02-23T05:54:51;29.17;;;12.47;;
6109;SDS011;3085;49.444;11.054;2023-02-23T05:57:21;24.40;;;11.63;;
6109;SDS011;3085;49.444;11.054;2023-02-23T05:59:49;29.00;;;11.57;;
6109;SDS011;3085;49.444;11.054;2023-02-23T06:02:17;30.20;;;13.53;;
6109;SDS011;3085;49.444;11.054;2023-02-23T06:04:43;25.80;;;11.90;;
6109;SDS011;3085;49.444;11.054;2023-02-23T06:07:11;24.27;;;10.53;;
6109;SDS011;3085;49.444;11.054;2023-02-23T06:09:38;23.90;;;10.40;;
6109;SDS011;3085;49.444;11.054;2023-02-23T06:12:05;28.17;;;12.17;;
6109;SDS011;3085;49.444;11.054;2023-02-23T06:14:33;39.77;;;12.47;;
6109;SDS011;3085;49.444;11.054;2023-02-23T06:16:59;21.03;;;10.47;;
6109;SDS011;3085;49.444;11.054;2023-02-23T06:19:28;18.47;;;10.00;;
6109;SDS011;3085;49.444;11.054;2023-02-23T06:21:55;24.47;;;10.97;;
6109;SDS011;3085;49.444;11.054;2023-02-23T06:24:22;29.27;;;11.83;;
6109;SDS011;3085;49.444;11.054;2023-02-23T06:26:49;28.23;;;10.80;;
6109;SDS011;3085;49.444;11.054;2023-02-23T06:29:16;25.63;;;11.60;;
6109;SDS011;3085;49.444;11.054;2023-02-23T06:31:43;31.10;;;11.97;;
6109;SDS011;3085;49.444;11.054;2023-02-23T06:34:10;28.17;;;12.87;;
6109;SDS011;3085;49.444;11.054;2023-02-23T06:36:38;27.83;;;12.40;;
6109;SDS011;3085;49.444;11.054;2023-02-23T06:39:05;30.53;;;11.97;;
6109;SDS011;3085;49.444;11.054;2023-02-23T06:41:32;28.43;;;11.00;;
6109;SDS011;3085;49.444;11.054;2023-02-23T06:43:59;26.47;;;12.57;;
6109;SDS011;3085;49.444;11.054;2023-02-23T06:46:26;23.73;;;10.80;;
6109;SDS011;3085;49.444;11.054;2023-02-23T06:48:53;19.23;;;8.70;;
6109;SDS011;3085;49.444;11.054;2023-02-23T06:51:20;28.60;;;11.80;;
6109;SDS011;3085;49.444;11.054;2023-02-23T06:53:49;22.00;;;10.40;;
6109;SDS011;3085;49.444;11.054;2023-02-23T06:56:16;27.13;;;12.07;;
6109;SDS011;3085;49.444;11.054;2023-02-23T06:58:43;37.27;;;14.33;;
6109;SDS011;3085;49.444;11.054;2023-02-23T07:01:10;27.00;;;12.27;;
6109;SDS011;3085;49.444;11.054;2023-02-23T07:03:37;35.60;;;15.23;;
6109;SDS011;3085;49.444;11.054;2023-02-23T07:06:04;33.60;;;13.50;;
6109;SDS011;3085;49.444;11.054;2023-02-23T07:08:31;43.27;;;15.57;;
6109;SDS011;3085;49.444;11.054;2023-02-23T07:11:04;39.87;;;14.63;;
6109;SDS011;3085;49.444;11.054;2023-02-23T07:13:32;43.57;;;16.20;;
6109;SDS011;3085;49.444;11.054;2023-02-23T07:15:59;34.87;;;14.73;;
6109;SDS011;3085;49.444;11.054;2023-02-23T07:18:26;44.83;;;15.80;;
6109;SDS011;3085;49.444;11.054;2023-02-23T07:20:53;49.13;;;15.10;;
6109;SDS011;3085;49.444;11.054;2023-02-23T07:23:20;46.37;;;16.50;;
6109;SDS011;3085;49.444;11.054;2023-02-23T07:25:48;32.07;;;14.67;;
6109;SDS011;3085;49.444;11.054;2023-02-23T07:28:17;28.10;;;12.67;;
6109;SDS011;3085;49.444;11.054;2023-02-23T07:30:47;35.33;;;14.77;;
6109;SDS011;3085;49.444;11.054;2023-02-23T07:33:14;30.67;;;12.87;;
6109;SDS011;3085;49.444;11.054;2023-02-23T07:35:41;32.97;;;14.17;;
6109;SDS011;3085;49.444;11.054;2023-02-23T07:38:09;31.40;;;14.00;;
6109;SDS011;3085;49.444;11.054;2023-02-23T07:40:36;35.70;;;15.73;;
6109;SDS011;3085;49.444;11.054;2023-02-23T07:43:03;32.13;;;14.07;;
6109;SDS011;3085;49.444;11.054;2023-02-23T07:45:31;46.57;;;16.17;;
6109;SDS011;3085;49.444;11.054;2023-02-23T07:47:58;43.77;;;17.93;;
6109;SDS011;3085;49.444;11.054;2023-02-23T07:50:25;32.60;;;14.20;;
6109;SDS011;3085;49.444;11.054;2023-02-23T07:52:52;34.00;;;13.83;;
6109;SDS011;3085;49.444;11.054;2023-02-23T07:55:18;29.73;;;11.90;;
6109;SDS011;3085;49.444;11.054;2023-02-23T07:57:46;44.43;;;16.43;;
6109;SDS011;3085;49.444;11.054;2023-02-23T08:00:13;37.40;;;13.13;;
6109;SDS011;3085;49.444;11.054;2023-02-23T08:02:41;38.37;;;14.20;;
6109;SDS011;3085;49.444;11.054;2023-02-23T08:05:08;29.70;;;12.70;;
6109;SDS011;3085;49.444;11.054;2023-02-23T08:07:35;29.97;;;12.60;;
6109;SDS011;3085;49.444;11.054;2023-02-23T08:10:02;32.07;;;13.10;;
6109;SDS011;3085;49.444;11.054;2023-02-23T08:12:30;27.53;;;13.90;;
6109;SDS011;3085;49.444;11.054;2023-02-23T08:14:57;59.83;;;13.40;;
6109;SDS011;3085;49.444;11.054;2023-02-23T08:17:24;28.40;;;13.90;;
6109;SDS011;3085;49.444;11.054;2023-02-23T08:19:52;33.53;;;14.27;;
6109;SDS011;3085;49.444;11.054;2023-02-23T08:22:19;43.27;;;16.43;;
6109;SDS011;3085;49.444;11.054;2023-02-23T08:24:47;38.80;;;15.33;;
6109;SDS011;3085;49.444;11.054;2023-02-23T08:27:14;33.73;;;14.77;;
6109;SDS011;3085;49.444;11.054;2023-02-23T08:29:40;50.47;;;15.17;;
6109;SDS011;3085;49.444;11.054;2023-02-23T08:32:07;34.70;;;15.03;;
6109;SDS011;3085;49.444;11.054;2023-02-23T08:34:36;42.57;;;17.37;;
6109;SDS011;3085;49.444;11.054;2023-02-23T08:37:04;36.53;;;14.40;;
6109;SDS011;3085;49.444;11.054;2023-02-23T08:39:32;28.67;;;14.17;;
6109;SDS011;3085;49.444;11.054;2023-02-23T08:41:58;39.17;;;16.13;;
6109;SDS011;3085;49.444;11.054;2023-02-23T08:44:25;46.93;;;17.07;;
6109;SDS011;3085;49.444;11.054;2023-02-23T08:46:52;36.20;;;15.43;;
6109;SDS011;3085;49.444;11.054;2023-02-23T08:49:19;42.70;;;16.37;;
6109;SDS011;3085;49.444;11.054;2023-02-23T08:51:46;32.30;;;14.17;;
6109;SDS011;3085;49.444;11.054;2023-02-23T08:54:14;29.40;;;14.53;;
6109;SDS011;3085;49.444;11.054;2023-02-23T08:56:42;37.37;;;15.63;;
6109;SDS011;3085;49.444;11.054;2023-02-23T08:59:10;45.53;;;16.57;;
6109;SDS011;3085;49.444;11.054;2023-02-23T09:01:38;43.40;;;15.17;;
6109;SDS011;3085;49.444;11.054;2023-02-23T09:04:06;40.50;;;15.40;;
6109;SDS011;3085;49.444;11.054;2023-02-23T09:06:33;31.87;;;13.93;;
6109;SDS011;3085;49.444;11.054;2023-02-23T09:09:01;34.47;;;15.37;;
6109;SDS011;3085;49.444;11.054;2023-02-23T09:11:30;36.53;;;15.70;;
6109;SDS011;3085;49.444;11.054;2023-02-23T09:13:57;41.07;;;15.23;;
6109;SDS011;3085;49.444;11.054;2023-02-23T09:16:24;29.80;;;14.60;;
6109;SDS011;3085;49.444;11.054;2023-02-23T09:18:50;39.40;;;14.60;;
6109;SDS011;3085;49.444;11.054;2023-02-23T09:21:18;39.80;;;15.00;;
6109;SDS011;3085;49.444;11.054;2023-02-23T09:23:49;36.13;;;13.73;;
6109;SDS011;3085;49.444;11.054;2023-02-23T09:26:18;45.50;;;14.53;;
6109;SDS011;3085;49.444;11.054;2023-02-23T09:28:46;30.13;;;13.80;;
6109;SDS011;3085;49.444;11.054;2023-02-23T09:31:14;32.43;;;14.57;;
6109;SDS011;3085;49.444;11.054;2023-02-23T09:33:42;35.13;;;16.10;;
6109;SDS011;3085;49.444;11.054;2023-02-23T09:36:09;36.93;;;15.87;;
6109;SDS011;3085;49.444;11.054;2023-02-23T09:38:40;27.93;;;14.20;;
6109;SDS011;3085;49.444;11.054;2023-02-23T09:41:08;31.10;;;14.60;;
6109;SDS011;3085;49.444;11.054;2023-02-23T09:44:06;32.10;;;14.70;;
6109;SDS011;3085;49.444;11.054;2023-02-23T09:46:40;36.40;;;14.53;;
6109;SDS011;3085;49.444;11.054;2023-02-23T09:49:15;35.10;;;15.23;;
6109;SDS011;3085;49.444;11.054;2023-02-23T09:51:46;38.90;;;15.47;;
6109;SDS011;3085;49.444;11.054;2023-02-23T09:54:15;35.10;;;14.80;;
6109;SDS011;3085;49.444;11.054;2023-02-23T09:56:44;36.20;;;15.60;;
6109;SDS011;3085;49.444;11.054;2023-02-23T09:59:15;43.13;;;15.80;;
6109;SDS011;3085;49.444;11.054;2023-02-23T10:01:48;28.40;;;14.00;;
6109;SDS011;3085;49.444;11.054;2023-02-23T10:04:24;35.43;;;14.40;;
6109;SDS011;3085;49.444;11.054;2023-02-23T10:06:58;34.80;;;15.50;;
6109;SDS011;3085;49.444;11.054;2023-02-23T10:09:32;27.57;;;12.90;;
6109;SDS011;3085;49.444;11.054;2023-02-23T10:12:10;26.40;;;13.57;;
6109;SDS011;3085;49.444;11.054;2023-02-23T10:17:38;38.47;;;15.10;;
6109;SDS011;3085;49.444;11.054;2023-02-23T10:20:12;33.93;;;13.93;;
6109;SDS011;3085;49.444;11.054;2023-02-23T10:22:45;38.47;;;15.60;;
6109;SDS011;3085;49.444;11.054;2023-02-23T10:25:15;35.53;;;15.13;;
6109;SDS011;3085;49.444;11.054;2023-02-23T10:27:47;38.67;;;15.70;;
6109;SDS011;3085;49.444;11.054;2023-02-23T10:30:18;36.37;;;15.37;;
6109;SDS011;3085;49.444;11.054;2023-02-23T10:32:49;35.43;;;15.00;;
6109;SDS011;3085;49.444;11.054;2023-02-23T10:35:25;36.87;;;15.27;;
6109;SDS011;3085;49.444;11.054;2023-02-23T10:37:54;33.60;;;16.37;;
6109;SDS011;3085;49.444;11.054;2023-02-23T10:40:23;31.00;;;15.00;;
6109;SDS011;3085;49.444;11.054;2023-02-23T10:42:52;35.73;;;14.77;;
6109;SDS011;3085;49.444;11.054;2023-02-23T10:45:22;43.87;;;14.50;;
6109;SDS011;3085;49.444;11.054;2023-02-23T10:47:51;32.47;;;15.10;;
6109;SDS011;3085;49.444;11.054;2023-02-23T10:50:22;35.23;;;12.97;;
6109;SDS011;3085;49.444;11.054;2023-02-23T10:52:53;29.27;;;12.13;;
6109;SDS011;3085;49.444;11.054;2023-02-23T10:55:24;36.37;;;14.03;;
6109;SDS011;3085;49.444;11.054;2023-02-23T10:58:02;29.50;;;11.63;;
6109;SDS011;3085;49.444;11.054;2023-02-23T11:00:35;27.80;;;12.83;;
6109;SDS011;3085;49.444;11.054;2023-02-23T11:03:14;22.90;;;12.40;;
6109;SDS011;3085;49.444;11.054;2023-02-23T11:05:44;33.63;;;13.13;;
6109;SDS011;3085;49.444;11.054;2023-02-23T11:11:01;33.63;;;11.80;;
6109;SDS011;3085;49.444;11.054;2023-02-23T11:13:34;26.13;;;11.33;;
6109;SDS011;3085;49.444;11.054;2023-02-23T11:16:06;27.97;;;12.17;;
6109;SDS011;3085;49.444;11.054;2023-02-23T11:18:37;23.97;;;11.57;;
6109;SDS011;3085;49.444;11.054;2023-02-23T11:21:09;19.00;;;9.87;;
6109;SDS011;3085;49.444;11.054;2023-02-23T11:23:37;26.83;;;12.13;;
6109;SDS011;3085;49.444;11.054;2023-02-23T11:26:16;34.87;;;12.40;;
6109;SDS011;3085;49.444;11.054;2023-02-23T11:28:50;28.70;;;11.40;;
6109;SDS011;3085;49.444;11.054;2023-02-23T11:31:20;37.90;;;14.07;;
6109;SDS011;3085;49.444;11.054;2023-02-23T11:33:52;20.70;;;9.20;;
6109;SDS011;3085;49.444;11.054;2023-02-23T11:36:25;20.43;;;8.80;;
6109;SDS011;3085;49.444;11.054;2023-02-23T11:39:00;17.30;;;8.50;;
6109;SDS011;3085;49.444;11.054;2023-02-23T11:41:31;19.37;;;9.23;;
6109;SDS011;3085;49.444;11.054;2023-02-23T11:44:01;21.47;;;9.80;;
6109;SDS011;3085;49.444;11.054;2023-02-23T11:46:30;25.97;;;10.33;;
6109;SDS011;3085;49.444;11.054;2023-02-23T11:49:00;17.90;;;8.13;;
6109;SDS011;3085;49.444;11.054;2023-02-23T11:51:30;20.90;;;10.20;;
6109;SDS011;3085;49.444;11.054;2023-02-23T11:54:00;31.07;;;10.70;;
6109;SDS011;3085;49.444;11.054;2023-02-23T11:56:29;22.23;;;9.40;;
6109;SDS011;3085;49.444;11.054;2023-02-23T11:58:58;26.83;;;10.27;;
6109;SDS011;3085;49.444;11.054;2023-02-23T12:01:35;25.40;;;11.10;;
6109;SDS011;3085;49.444;11.054;2023-02-23T12:04:08;21.37;;;10.00;;
6109;SDS011;3085;49.444;11.054;2023-02-23T12:06:47;22.33;;;10.10;;
6109;SDS011;3085;49.444;11.054;2023-02-23T12:09:16;21.57;;;9.40;;
6109;SDS011;3085;49.444;11.054;2023-02-23T12:11:50;30.40;;;10.73;;
6109;SDS011;3085;49.444;11.054;2023-02-23T12:14:24;18.57;;;8.10;;
6109;SDS011;3085;49.444;11.054;2023-02-23T12:16:59;14.53;;;6.30;;
6109;SDS011;3085;49.444;11.054;2023-02-23T12:19:30;16.10;;;7.27;;
6109;SDS011;3085;49.444;11.054;2023-02-23T12:22:02;11.83;;;6.23;;
6109;SDS011;3085;49.444;11.054;2023-02-23T12:24:41;23.30;;;7.37;;
6109;SDS011;3085;49.444;11.054;2023-02-23T12:27:13;15.33;;;6.90;;
6109;SDS011;3085;49.444;11.054;2023-02-23T12:29:50;16.07;;;7.43;;
6109;SDS011;3085;49.444;11.054;2023-02-23T12:32:31;19.17;;;7.77;;
6109;SDS011;3085;49.444;11.054;2023-02-23T12:35:09;18.23;;;7.03;;
6109;SDS011;3085;49.444;11.054;2023-02-23T12:37:40;18.13;;;6.43;;
6109;SDS011;3085;49.444;11.054;2023-02-23T12:40:12;13.97;;;6.90;;
6109;SDS011;3085;49.444;11.054;2023-02-23T12:42:42;13.43;;;7.40;;
6109;SDS011;3085;49.444;11.054;2023-02-23T12:45:17;14.90;;;7.97;;
6109;SDS011;3085;49.444;11.054;2023-02-23T12:47:52;18.60;;;8.70;;
6109;SDS011;3085;49.444;11.054;2023-02-23T12:50:26;17.20;;;7.10;;
6109;SDS011;3085;49.444;11.054;2023-02-23T12:52:58;16.33;;;7.90;;
6109;SDS011;3085;49.444;11.054;2023-02-23T12:55:38;13.40;;;6.70;;
6109;SDS011;3085;49.444;11.054;2023-02-23T12:58:13;14.90;;;7.13;;
6109;SDS011;3085;49.444;11.054;2023-02-23T13:00:50;15.90;;;8.00;;
6109;SDS011;3085;49.444;11.054;2023-02-23T13:03:39;19.47;;;8.00;;
6109;SDS011;3085;49.444;11.054;2023-02-23T13:06:21;19.33;;;6.97;;
6109;SDS011;3085;49.444;11.054;2023-02-23T13:09:01;12.67;;;6.53;;
6109;SDS011;3085;49.444;11.054;2023-02-23T13:14:32;16.63;;;7.50;;
6109;SDS011;3085;49.444;11.054;2023-02-23T13:17:04;17.80;;;6.77;;
6109;SDS011;3085;49.444;11.054;2023-02-23T13:19:40;12.87;;;6.67;;
6109;SDS011;3085;49.444;11.054;2023-02-23T13:22:20;10.20;;;6.30;;
6109;SDS011;3085;49.444;11.054;2023-02-23T13:24:56;13.63;;;7.47;;
6109;SDS011;3085;49.444;11.054;2023-02-23T13:27:28;18.40;;;8.10;;
6109;SDS011;3085;49.444;11.054;2023-02-23T13:29:59;35.60;;;14.63;;
6109;SDS011;3085;49.444;11.054;2023-02-23T13:32:27;20.60;;;9.20;;
6109;SDS011;3085;49.444;11.054;2023-02-23T13:34:59;16.20;;;8.20;;
6109;SDS011;3085;49.444;11.054;2023-02-23T13:37:27;15.80;;;7.30;;
6109;SDS011;3085;49.444;11.054;2023-02-23T13:40:00;14.57;;;7.40;;
6109;SDS011;3085;49.444;11.054;2023-02-23T13:42:41;17.47;;;7.00;;
6109;SDS011;3085;49.444;11.054;2023-02-23T13:45:21;12.17;;;5.70;;
6109;SDS011;3085;49.444;11.054;2023-02-23T13:47:55;19.43;;;7.10;;
6109;SDS011;3085;49.444;11.054;2023-02-23T13:50:32;12.37;;;6.60;;
6109;SDS011;3085;49.444;11.054;2023-02-23T13:53:20;12.13;;;6.47;;
6109;SDS011;3085;49.444;11.054;2023-02-23T13:55:57;14.50;;;7.03;;
6109;SDS011;3085;49.444;11.054;2023-02-23T13:58:26;12.73;;;6.53;;
6109;SDS011;3085;49.444;11.054;2023-02-23T14:01:02;14.30;;;6.03;;
6109;SDS011;3085;49.444;11.054;2023-02-23T14:03:35;21.63;;;6.70;;
6109;SDS011;3085;49.444;11.054;2023-02-23T14:06:10;9.63;;;5.60;;
6109;SDS011;3085;49.444;11.054;2023-02-23T14:08:40;15.50;;;6.83;;
6109;SDS011;3085;49.444;11.054;2023-02-23T14:11:10;9.87;;;5.80;;
6109;SDS011;3085;49.444;11.054;2023-02-23T14:14:13;11.53;;;6.23;;
6109;SDS011;3085;49.444;11.054;2023-02-23T14:23:15;18.97;;;6.13;;
6109;SDS011;3085;49.444;11.054;2023-02-23T14:26:11;11.20;;;5.27;;
6109;SDS011;3085;49.444;11.054;2023-02-23T14:28:40;15.13;;;6.70;;
6109;SDS011;3085;49.444;11.054;2023-02-23T14:31:15;15.20;;;6.10;;
6109;SDS011;3085;49.444;11.054;2023-02-23T14:33:50;14.13;;;5.60;;
6109;SDS011;3085;49.444;11.054;2023-02-23T14:36:32;13.40;;;5.70;;
6109;SDS011;3085;49.444;11.054;2023-02-23T14:39:04;10.90;;;5.93;;
6109;SDS011;3085;49.444;11.054;2023-02-23T14:41:36;9.40;;;4.97;;
6109;SDS011;3085;49.444;11.054;2023-02-23T14:44:11;11.83;;;5.43;;
6109;SDS011;3085;49.444;11.054;2023-02-23T14:46:46;11.37;;;5.20;;
6109;SDS011;3085;49.444;11.054;2023-02-23T14:49:16;16.87;;;6.13;;
6109;SDS011;3085;49.444;11.054;2023-02-23T14:51:46;14.30;;;6.87;;
6109;SDS011;3085;49.444;11.054;2023-02-23T14:54:24;19.00;;;7.40;;
6109;SDS011;3085;49.444;11.054;2023-02-23T14:56:53;17.27;;;7.30;;
6109;SDS011;3085;49.444;11.054;2023-02-23T14:59:23;21.60;;;8.80;;
6109;SDS011;3085;49.444;11.054;2023-02-23T15:01:52;20.07;;;7.87;;
6109;SDS011;3085;49.444;11.054;2023-02-23T15:04:22;13.70;;;6.87;;
6109;SDS011;3085;49.444;11.054;2023-02-23T15:06:51;15.63;;;7.40;;
6109;SDS011;3085;49.444;11.054;2023-02-23T15:09:22;16.83;;;9.00;;
6109;SDS011;3085;49.444;11.054;2023-02-23T15:11:58;22.77;;;8.10;;
6109;SDS011;3085;49.444;11.054;2023-02-23T15:14:30;21.70;;;8.50;;
6109;SDS011;3085;49.444;11.054;2023-02-23T15:17:01;18.60;;;7.10;;
6109;SDS011;3085;49.444;11.054;2023-02-23T15:19:30;17.93;;;7.87;;
6109;SDS011;3085;49.444;11.054;2023-02-23T15:22:00;15.03;;;7.30;;
6109;SDS011;3085;49.444;11.054;2023-02-23T15:24:32;20.67;;;8.33;;
6109;SDS011;3085;49.444;11.054;2023-02-23T15:27:13;23.97;;;8.90;;
6109;SDS011;3085;49.444;11.054;2023-02-23T15:29:42;20.30;;;9.23;;
6109;SDS011;3085;49.444;11.054;2023-02-23T15:32:10;15.73;;;7.77;;
6109;SDS011;3085;49.444;11.054;2023-02-23T15:34:41;24.63;;;8.77;;
6109;SDS011;3085;49.444;11.054;2023-02-23T15:37:10;14.70;;;7.73;;
6109;SDS011;3085;49.444;11.054;2023-02-23T15:39:46;22.23;;;8.70;;